Latest Weather Observations for Alice Springs Airport

IDD60801

Issued at 3:01 pm CST Sunday 26 February 2017 (issued every 30 minutes, with the page automatically refreshed every 10 minutes)

About weather observations | Map of weather stations | Latest weather observations for NT | Other Formats
Station Details ID: 015590 Name: ALICE SPRINGS AIRPORT Lat: -23.80 Lon: 133.89 Height: 546.0 m
Data from the previous 72 hours. | See also: Recent months at Alice Springs Airport
Date/Time
CST
Temp
°C
App
Temp
°C
Dew
Point
°C
Rel
Hum
%
Delta-T
°C
Wind Press
QNH
hPa
Press
MSL
hPa
Rain since
9am
mm
Dir  Spd
km/h
Gust
km/h
Spd
kts
Gust
kts
26/03:00pm 35.0 30.3 1.0 11 17.5 SE 15 28 8 15 1013.3 1009.4 0.0
26/02:30pm 34.1 29.4 0.7 12 17.0 S 15 32 8 17 1013.6 1009.7 0.0
26/02:00pm 34.5 29.0 0.9 12 17.2 SE 19 32 10 17 1014.1 1010.1 0.0
26/01:30pm 33.5 28.0 0.9 12 16.6 SE 19 28 10 15 1014.5 1010.6 0.0
26/01:00pm 33.3 27.6 0.3 12 16.6 SE 20 32 11 17 1014.9 1011.0 0.0
26/12:30pm 32.1 26.4 0.6 13 15.8 ESE 20 32 11 17 1015.4 1011.5 0.0
26/12:00pm 31.9 26.1 0.1 13 15.8 SE 20 30 11 16 1015.7 1011.8 0.0
26/11:30am 30.9 25.1 0.1 14 15.2 SE 20 32 11 17 1016.3 1012.4 0.0
26/11:00am 30.0 24.0 0.8 15 14.5 SE 22 35 12 19 1016.7 1012.8 0.0
26/10:30am 29.7 23.4 1.3 16 14.2 ESE 24 35 13 19 1017.1 1013.2 0.0
26/10:00am 29.3 22.1 0.7 16 14.1 ESE 28 33 15 18 1017.5 1013.6 0.0
26/09:30am 28.3 22.0 1.6 18 13.3 ESE 24 35 13 19 1017.6 1013.8 0.0
26/09:00am 27.2 22.0 2.5 20 12.4 E 19 28 10 15 1017.7 1013.9 0.0
26/08:30am 25.4 20.6 2.4 22 11.4 E 17 22 9 12 1017.7 1013.9 0.0
26/08:00am 24.0 19.9 2.0 23 10.7 ESE 13 15 7 8 1017.6 1013.8 0.0
26/07:30am 22.1 18.9 2.8 28 9.4 SE 9 11 5 6 1017.5 1013.6 0.0
26/07:00am 17.1 15.9 6.4 49 5.4 S 2 9 1 5 1017.2 1013.3 0.0
26/06:30am 17.2 15.9 3.9 41 6.4 CALM 0 0 0 0 1016.9 1013.0 0.0
26/06:00am 16.9 14.2 5.6 47 5.6 S 9 9 5 5 1016.5 1012.6 0.0
26/05:30am 16.9 15.4 4.8 44 5.9 NE 2 7 1 4 1016.4 1012.5 0.0
26/05:00am 16.6 13.7 4.7 45 5.8 E 9 13 5 7 1016.1 1012.2 0.0
26/04:30am 18.4 15.4 4.3 39 6.9 NNE 9 13 5 7 1015.8 1011.9 0.0
26/04:00am 18.7 15.8 4.8 40 6.9 SSE 9 9 5 5 1015.7 1011.8 0.0
26/03:30am 19.7 17.3 4.3 36 7.6 ESE 6 7 3 4 1015.6 1011.7 0.0
26/03:00am 21.0 17.3 4.7 34 8.2 SE 13 15 7 8 1015.8 1011.9 0.0
26/02:30am 21.0 17.8 5.2 35 8.0 S 11 13 6 7 1016.0 1012.1 0.0
26/02:00am 21.1 17.1 4.8 34 8.2 SSE 15 15 8 8 1016.1 1012.2 0.0
26/01:30am 21.8 18.5 4.5 32 8.7 S 11 13 6 7 1016.3 1012.4 0.0
26/01:00am 22.5 20.2 5.6 33 8.7 S 7 9 4 5 1016.5 1012.6 0.0
26/12:30am 23.9 21.5 5.4 30 9.6 ESE 7 7 4 4 1016.6 1012.7 0.0
26/12:00am 24.5 21.2 4.6 27 10.2 SE 11 11 6 6 1016.8 1012.9 0.0
 
Date/Time
CST
Temp
°C
App
Temp
°C
Dew
Point
°C
Rel
Hum
%
Delta-T
°C
Wind Press
QNH
hPa
Press
MSL
hPa
Rain since
9am
mm
Dir  Spd
km/h
Gust
km/h
Spd
kts
Gust
kts
25/11:30pm 24.1 21.0 5.4 30 9.7 SSE 11 11 6 6 1016.8 1012.9 0.0
25/11:00pm 26.0 22.3 4.5 25 11.1 SE 13 15 7 8 1016.9 1013.0 0.0
25/10:30pm 26.9 23.2 4.3 23 11.7 SE 13 17 7 9 1016.9 1013.0 0.0
25/10:00pm 26.6 23.4 5.0 25 11.3 SE 11 13 6 7 1016.8 1012.9 0.0
25/09:30pm 28.4 24.3 4.6 22 12.5 SE 15 19 8 10 1016.5 1012.6 0.0
25/09:00pm 29.5 25.4 4.1 20 13.3 SE 15 19 8 10 1016.3 1012.4 0.0
25/08:30pm 30.1 25.5 3.6 18 13.8 SE 17 26 9 14 1015.8 1011.9 0.0
25/08:00pm 30.7 26.5 3.9 18 14.1 SE 15 20 8 11 1015.5 1011.6 0.0
25/07:30pm 31.7 26.6 3.2 16 14.9 SE 19 28 10 15 1015.3 1011.4 0.0
25/07:00pm 32.6 27.0 3.7 16 15.3 SE 22 32 12 17 1015.0 1011.1 0.0
25/06:30pm 33.5 27.8 2.8 14 16.1 SE 22 32 12 17 1014.8 1010.9 0.0
25/06:00pm 34.2 28.9 3.0 14 16.5 SE 20 32 11 17 1014.6 1010.7 0.0
25/05:30pm 34.5 28.4 2.5 13 16.8 SE 24 41 13 22 1014.6 1010.7 0.0
25/05:00pm 34.9 28.7 2.3 13 17.1 SE 24 33 13 18 1014.6 1010.7 0.0
25/04:30pm 35.3 28.5 2.9 13 17.2 ESE 28 39 15 21 1014.8 1010.9 0.0
25/04:00pm 35.2 29.0 2.3 12 17.3 SE 24 39 13 21 1014.9 1011.0 0.0
25/03:30pm 35.6 28.9 1.2 11 17.8 SE 26 39 14 21 1015.1 1011.2 0.0
25/03:00pm 35.1 29.2 1.6 12 17.4 SE 22 37 12 20 1015.4 1011.5 0.0
25/02:30pm 34.6 28.8 2.3 13 16.9 SE 22 37 12 20 1016.0 1012.1 0.0
25/02:00pm 35.0 29.2 2.5 13 17.1 SE 22 37 12 20 1016.5 1012.6 0.0
25/01:30pm 34.6 29.0 3.5 14 16.6 SE 22 41 12 22 1016.9 1013.0 0.0
25/01:00pm 33.6 27.5 3.0 14 16.1 SE 24 39 13 21 1017.3 1013.4 0.0
25/12:30pm 32.6 27.7 4.0 16 15.2 SSE 19 30 10 16 1017.9 1014.0 0.0
25/12:00pm 32.2 26.4 4.2 17 14.9 SE 24 33 13 18 1018.3 1014.4 0.0
25/11:30am 30.8 25.2 5.3 20 13.7 ESE 24 39 13 21 1018.8 1014.9 0.0
25/11:00am 30.0 23.8 4.1 19 13.6 SE 26 39 14 21 1019.2 1015.3 0.0
25/10:30am 29.8 23.8 5.3 21 13.1 ESE 26 37 14 20 1019.5 1015.7 0.0
25/10:00am 29.7 23.1 4.1 19 13.4 SE 28 39 15 21 1019.9 1016.0 0.0
25/09:30am 28.3 21.7 4.3 21 12.5 ESE 28 39 15 21 1020.1 1016.2 0.0
25/09:00am 27.1 20.8 4.0 22 11.9 ESE 26 35 14 19 1020.2 1016.3 0.0
25/08:30am 26.3 21.3 4.7 25 11.2 SE 20 33 11 18 1020.2 1016.3 0.0
25/08:00am 25.3 21.6 4.7 26 10.6 SE 13 19 7 10 1020.3 1016.4 0.0
25/07:30am 22.3 21.3 5.6 33 8.6 CALM 0 0 0 0 1020.3 1016.4 0.0
25/07:00am 18.7 16.0 5.5 42 6.6 S 9 13 5 7 1020.0 1016.1 0.0
25/06:30am 18.4 16.1 4.8 40 6.7 SW 6 9 3 5 1019.6 1015.8 0.0
25/06:00am 18.9 16.6 4.8 39 7.0 SW 6 7 3 4 1019.2 1015.3 0.0
25/05:30am 19.0 16.7 4.6 38 7.1 SW 6 7 3 4 1018.8 1014.9 0.0
25/05:00am 19.6 16.7 4.4 36 7.5 W 9 9 5 5 1018.6 1014.7 0.0
25/04:30am 18.7 15.9 5.0 40 6.8 WSW 9 9 5 5 1018.5 1014.6 0.0
25/04:07am 20.0 17.2 5.0 37 7.5 SSE 9 9 5 5 1018.6 1014.7 0.0
25/04:00am 20.4 17.8 5.9 38 7.4 SSE 9 9 5 5 1018.5 1014.6 0.0
25/03:44am 21.1 18.9 6.2 38 7.7 SSE 7 9 4 5 1018.5 1014.6 0.0
25/03:30am 21.8 19.6 6.4 36 8.0 SSE 7 9 4 5 1018.3 1014.4 0.0
25/03:00am 22.0 19.7 4.8 32 8.7 WNW 6 6 3 3 1018.4 1014.5 0.0
25/02:30am 21.2 18.8 5.2 35 8.1 WNW 7 9 4 5 1018.5 1014.6 0.0
25/02:00am 22.4 21.2 4.6 31 9.0 CALM 0 0 0 0 1018.5 1014.6 0.0
25/01:30am 21.8 19.5 5.0 33 8.5 WSW 6 7 3 4 1018.8 1014.9 0.0
25/01:00am 23.5 20.6 4.6 29 9.6 ESE 9 9 5 5 1019.0 1015.1 0.0
25/12:30am 24.9 22.0 4.7 27 10.4 ESE 9 11 5 6 1019.1 1015.2 0.0
25/12:00am 25.9 23.6 5.5 27 10.7 ENE 7 9 4 5 1019.3 1015.5 0.0
 
Date/Time
CST
Temp
°C
App
Temp
°C
Dew
Point
°C
Rel
Hum
%
Delta-T
°C
Wind Press
QNH
hPa
Press
MSL
hPa
Rain since
9am
mm
Dir  Spd
km/h
Gust
km/h
Spd
kts
Gust
kts
24/11:30pm 26.3 23.7 4.4 24 11.3 E 7 7 4 4 1019.3 1015.5 0.0
24/11:00pm 26.7 24.2 4.5 24 11.5 E 7 9 4 5 1019.4 1015.6 0.0
24/10:30pm 27.2 23.8 4.2 23 11.9 SE 11 15 6 8 1019.3 1015.5 0.0
24/10:00pm 28.8 24.5 3.3 19 13.1 SSE 15 19 8 10 1018.9 1015.0 0.0
24/09:30pm 29.9 25.3 3.5 18 13.7 SE 17 22 9 12 1018.7 1014.8 0.0
24/09:00pm 30.8 25.6 3.3 17 14.3 SE 20 30 11 16 1018.4 1014.5 0.0
24/08:30pm 31.7 26.1 3.5 16 14.8 SE 22 35 12 19 1018.0 1014.1 0.0
24/08:00pm 32.4 27.5 4.0 16 15.1 SE 19 28 10 15 1017.5 1013.6 0.0
24/07:30pm 32.6 26.3 4.0 16 15.2 ESE 26 33 14 18 1017.2 1013.3 0.0
24/07:00pm 32.8 26.3 4.8 17 15.1 ESE 28 37 15 20 1017.0 1013.1 0.0
24/06:30pm 33.2 27.2 5.3 17 15.2 ESE 26 33 14 18 1016.9 1013.0 0.0
24/06:00pm 33.5 28.2 6.6 18 15.0 ESE 24 35 13 19 1016.6 1012.7 0.0
24/05:30pm 33.4 27.4 7.0 19 14.8 ESE 28 37 15 20 1016.5 1012.6 0.0
24/05:00pm 33.5 28.0 7.5 20 14.7 ESE 26 41 14 22 1016.3 1012.4 0.0
24/04:30pm 33.7 28.5 7.3 19 14.9 SE 24 41 13 22 1016.3 1012.4 0.0
24/04:00pm 33.8 27.9 7.7 20 14.8 ESE 28 35 15 19 1016.7 1012.8 0.0
24/03:47pm 34.1 28.2 7.7 19 15.0 SE 28 46 15 25 1016.7 1012.8 0.0
24/03:30pm 34.2 28.3 7.6 19 15.1 SE 28 44 15 24 1017.0 1013.1 0.0
24/03:03pm 33.4 28.0 8.2 21 14.4 ESE 26 50 14 27 1017.3 1013.4 0.0
24/03:00pm 35.1 29.5 7.2 18 15.8 ESE 26 41 14 22 1017.4 1013.5 0.0
24/02:30pm 35.2 29.5 6.8 17 16.0 ESE 26 41 14 22 1017.9 1014.0 0.0
24/02:00pm 34.2 28.4 6.3 17 15.5 ESE 26 39 14 21 1018.4 1014.5 0.0
24/01:30pm 33.0 27.7 6.8 19 14.6 ESE 24 43 13 23 1018.8 1014.9 0.0
24/01:00pm 32.7 28.1 6.5 19 14.5 SE 20 35 11 19 1019.2 1015.3 0.0
24/12:30pm 32.1 27.0 6.0 19 14.3 ESE 22 41 12 22 1020.0 1016.1 0.0
24/12:00pm 31.3 25.3 5.3 19 14.0 SE 26 37 14 20 1020.5 1016.6 0.0
24/11:30am 31.3 25.5 4.3 18 14.3 SE 24 33 13 18 1020.9 1017.0 0.0
24/11:00am 29.6 23.6 3.5 19 13.5 ESE 24 33 13 18 1021.4 1017.6 0.0
24/10:30am 30.6 24.5 2.8 17 14.3 ESE 24 33 13 18 1021.8 1017.9 0.0
24/10:00am 29.0 21.7 2.3 18 13.5 ESE 30 39 16 21 1021.9 1018.0 0.0
24/09:30am 28.1 21.2 2.5 19 12.9 ESE 28 35 15 19 1022.0 1018.1 0.0
24/09:00am 27.2 21.0 2.1 19 12.5 SE 24 35 13 19 1021.8 1017.9 0.0
24/08:30am 26.4 21.8 3.9 23 11.5 SE 17 30 9 16 1021.5 1017.7 0.0
24/08:00am 25.0 20.9 4.2 26 10.6 SE 15 20 8 11 1021.4 1017.6 0.0
24/07:30am 22.5 19.9 6.1 34 8.5 SSE 9 11 5 6 1021.4 1017.6 0.0
24/07:00am 19.7 18.4 5.9 40 7.0 SE 2 6 1 3 1021.1 1017.3 0.0
24/06:30am 18.9 16.1 5.3 41 6.8 SE 9 11 5 6 1020.8 1016.9 0.0
24/06:00am 20.8 17.6 4.9 35 8.0 SE 11 15 6 8 1020.6 1016.7 0.0
24/05:30am 20.0 16.9 5.6 39 7.3 SE 11 11 6 6 1020.3 1016.4 0.0
24/05:00am 20.1 18.0 6.0 39 7.2 ESE 6 9 3 5 1019.9 1016.0 0.0
24/04:30am 19.2 18.1 5.2 39 7.0 CALM 0 6 0 3 1019.6 1015.8 0.0
24/04:00am 22.0 18.8 5.1 33 8.6 ESE 11 15 6 8 1019.3 1015.5 0.0
24/03:30am 22.5 19.2 4.7 31 9.0 ESE 11 13 6 7 1019.1 1015.2 0.0
24/03:00am 22.0 18.9 5.4 34 8.5 SE 11 13 6 7 1019.1 1015.2 0.0
24/02:30am 23.6 20.3 4.8 29 9.6 ESE 11 13 6 7 1019.2 1015.3 0.0
24/02:00am 25.2 21.5 4.3 26 10.7 ESE 13 17 7 9 1019.3 1015.5 0.0
24/01:30am 26.2 22.0 3.9 23 11.4 ESE 15 22 8 12 1019.5 1015.7 0.0
24/01:00am 26.8 22.2 3.7 22 11.8 ESE 17 26 9 14 1019.4 1015.6 0.0
24/12:30am 26.9 22.7 3.9 22 11.8 ESE 15 28 8 15 1019.7 1015.9 0.0
24/12:00am 27.6 23.0 3.6 21 12.3 ESE 17 26 9 14 1019.6 1015.8 0.0
 
Date/Time
CST
Temp
°C
App
Temp
°C
Dew
Point
°C
Rel
Hum
%
Delta-T
°C
Wind Press
QNH
hPa
Press
MSL
hPa
Rain since
9am
mm
Dir  Spd
km/h
Gust
km/h
Spd
kts
Gust
kts
23/11:30pm 28.0 23.7 3.4 20 12.6 SE 15 22 8 12 1019.4 1015.6 0.0
23/11:00pm 28.6 23.9 2.9 19 13.1 SE 17 22 9 12 1019.4 1015.6 0.0
23/10:30pm 29.0 23.9 3.0 19 13.3 SE 19 30 10 16 1019.2 1015.3 0.0
23/10:00pm 29.6 24.9 3.2 18 13.6 SE 17 32 9 17 1019.0 1015.1 0.0
23/09:30pm 30.1 24.8 3.2 18 13.9 SE 20 30 11 16 1018.6 1014.7 0.0
23/09:00pm 30.5 25.4 3.0 17 14.2 SE 19 24 10 13 1018.1 1014.2 0.0
23/08:30pm 31.2 26.4 2.4 16 14.8 SE 17 24 9 13 1017.7 1013.9 0.0
23/08:00pm 31.7 26.4 2.0 15 15.2 SE 19 30 10 16 1017.2 1013.3 0.0
23/07:30pm 32.5 26.2 1.6 14 15.8 SE 24 33 13 18 1016.7 1012.8 0.0
23/07:00pm 33.2 27.0 2.1 14 16.1 SE 24 35 13 19 1016.3 1012.4 0.0
23/06:30pm 34.2 27.7 2.6 13 16.6 SE 26 37 14 20 1015.8 1011.9 0.0
23/06:00pm 35.0 28.5 2.9 13 17.0 SSE 26 39 14 21 1015.5 1011.6 0.0
23/05:30pm 35.9 29.3 4.3 14 17.2 SE 28 43 15 23 1015.3 1011.4 0.0
23/05:00pm 35.8 29.5 1.7 11 17.8 SE 24 44 13 24 1015.2 1011.3 0.0
23/04:30pm 36.5 30.0 2.7 12 18.0 ESE 26 41 14 22 1015.0 1011.1 0.0
23/04:00pm 36.1 29.7 3.3 13 17.6 ESE 26 43 14 23 1014.9 1011.0 0.0
23/03:40pm 36.3 29.5 3.0 12 17.8 SE 28 46 15 25 1015.0 1011.1 0.0
23/03:30pm 36.6 29.2 1.8 11 18.3 SE 30 46 16 25 1015.0 1011.1 0.0

Other Formats:

Comma delimited format used in spreadsheet applications
http://www.bom.gov.au/fwo/IDD60801/IDD60801.94326.axf

JavaScript Object Notation format (JSON) in row-major order
http://www.bom.gov.au/fwo/IDD60801/IDD60801.94326.json